Time;durP1;ratioP1;P1;durP2;ratioP2;P2;SDS_P1;SDS_P2;PMS_P1;PMS_P2;Temp;Humidity;BMP_temperature;BMP_pressure;BME280_temperature;BME280_humidity;BME280_pressure;Samples;Min_cycle;Max_cycle;Signal;HPM_P1;HPM_P2
2022/12/21 00:00:04;;;;;;;29.50;9.65;;;6.00;99.90;;;;;;6183301;23;20020;-87
2022/12/21 00:02:33;;;;;;;25.55;8.65;;;6.00;99.90;;;;;;6159746;23;20063;-87
2022/12/21 00:04:59;;;;;;;20.98;8.40;;;5.90;99.90;;;;;;6184781;23;20028;-86
2022/12/21 00:07:25;;;;;;;28.63;8.80;;;6.10;99.90;;;;;;6184617;23;20020;-87
2022/12/21 00:09:54;;;;;;;22.63;8.77;;;6.00;99.90;;;;;;6184156;23;20448;-86
2022/12/21 00:12:25;;;;;;;20.75;9.27;;;6.00;99.90;;;;;;6186002;23;20026;-87
2022/12/21 00:14:53;;;;;;;28.90;9.13;;;6.10;99.90;;;;;;6161037;23;20024;-88
2022/12/21 00:17:19;;;;;;;22.70;9.88;;;6.00;99.90;;;;;;6186648;23;20028;-87
2022/12/21 00:19:45;;;;;;;26.45;9.82;;;5.90;99.90;;;;;;6186822;23;20012;-88
2022/12/21 00:22:11;;;;;;;24.83;9.85;;;6.10;99.90;;;;;;6186469;23;20020;-87
2022/12/21 00:24:42;;;;;;;28.25;10.00;;;6.00;99.90;;;;;;6189124;23;20238;-89
2022/12/21 00:27:14;;;;;;;22.33;10.18;;;5.80;99.90;;;;;;6188719;23;20522;-86
2022/12/21 00:29:40;;;;;;;31.40;10.85;;;6.70;99.90;;;;;;6211481;23;20070;-87
2022/12/21 00:32:06;;;;;;;42.33;10.93;;;5.70;99.90;;;;;;6210545;23;20021;-86
2022/12/21 00:34:31;;;;;;;63.17;10.50;;;5.90;99.90;;;;;;6186215;23;20028;-87
2022/12/21 00:37:01;;;;;;;43.65;9.75;;;5.60;99.90;;;;;;6185664;23;20271;-88
2022/12/21 00:39:26;;;;;;;29.17;9.02;;;4.90;99.90;;;;;;6186558;23;20136;-87
2022/12/21 00:41:52;;;;;;;43.50;9.80;;;4.50;99.90;;;;;;6184868;23;20024;-86
2022/12/21 00:44:18;;;;;;;65.50;10.80;;;5.60;99.90;;;;;;6211101;23;20020;-87
2022/12/21 00:46:46;;;;;;;67.60;9.90;;;5.60;99.90;;;;;;6210956;23;20436;-87
2022/12/21 00:49:15;;;;;;;45.70;8.95;;;5.60;99.90;;;;;;6162006;23;20026;-86
2022/12/21 00:51:41;;;;;;;25.98;8.07;;;5.40;99.90;;;;;;6159281;23;20474;-90
2022/12/21 00:54:08;;;;;;;42.08;9.60;;;5.40;99.90;;;;;;6159591;23;20024;-86
2022/12/21 00:56:36;;;;;;;31.80;8.40;;;5.30;99.90;;;;;;6185226;23;20048;-86
2022/12/21 00:59:05;;;;;;;18.27;7.90;;;5.30;99.90;;;;;;6183461;23;20052;-88
2022/12/21 01:01:32;;;;;;;33.97;9.00;;;5.60;99.90;;;;;;6184011;23;20023;-88
2022/12/21 01:03:59;;;;;;;42.15;9.38;;;5.70;99.90;;;;;;6184049;23;20079;-87
2022/12/21 01:06:33;;;;;;;17.90;7.55;;;5.30;99.90;;;;;;6185964;23;20017;-86
2022/12/21 01:08:59;;;;;;;22.70;7.57;;;5.50;99.90;;;;;;6186137;23;20016;-87
2022/12/21 01:11:28;;;;;;;20.02;8.18;;;5.30;99.90;;;;;;6185843;23;20478;-86
2022/12/21 01:13:54;;;;;;;17.83;8.23;;;5.20;99.90;;;;;;6210440;23;20017;-87
2022/12/21 01:16:32;;;;;;;19.25;7.45;;;4.20;99.90;;;;;;6184401;23;20099;-87
2022/12/21 01:19:06;;;;;;;18.20;7.50;;;4.10;99.90;;;;;;6183808;23;20396;-87
2022/12/21 01:21:32;;;;;;;20.35;7.65;;;;;;;;;;6183802;23;20459;-87
2022/12/21 01:24:00;;;;;;;12.93;7.00;;;5.20;99.90;;;;;;6208003;23;20042;-87
2022/12/21 01:26:29;;;;;;;16.80;7.10;;;5.10;99.90;;;;;;6183533;23;20047;-87
2022/12/21 01:29:05;;;;;;;;;;;;;;;;;;;;;
2022/12/21 01:31:31;;;;;;;13.15;5.75;;;5.10;99.90;;;;;;6209652;23;20024;-87
2022/12/21 01:34:19;;;;;;;;;;;;;;;;;;;;;
2022/12/21 01:36:45;;;;;;;14.95;4.97;;;4.90;99.90;;;;;;6185276;23;20461;-87
2022/12/21 01:39:11;;;;;;;17.90;6.00;;;5.00;99.90;;;;;;6158957;23;20020;-88
2022/12/21 01:41:40;;;;;;;15.52;4.90;;;4.80;99.90;;;;;;6184492;23;20079;-88
2022/12/21 01:44:44;;;;;;;12.50;4.55;;;4.80;99.90;;;;;;6183868;23;20024;-87
2022/12/21 01:47:21;;;;;;;16.13;4.45;;;4.70;99.90;;;;;;6184889;23;20522;-87
2022/12/21 01:49:56;;;;;;;11.05;5.95;;;4.70;99.90;;;;;;6185733;23;20029;-86
2022/12/21 01:52:29;;;;;;;11.77;5.32;;;4.50;99.90;;;;;;6184881;23;20405;-87
2022/12/21 01:55:01;;;;;;;12.18;6.15;;;4.40;99.90;;;;;;6184447;23;20027;-87
2022/12/21 01:57:32;;;;;;;7.57;4.95;;;4.20;99.90;;;;;;6185381;23;20118;-87
2022/12/21 02:00:00;;;;;;;8.43;5.13;;;4.00;99.90;;;;;;6184710;23;20027;-86
2022/12/21 02:02:39;;;;;;;10.65;5.55;;;3.60;99.90;;;;;;6185149;23;20035;-87
2022/12/21 02:05:27;;;;;;;9.32;5.40;;;3.60;99.90;;;;;;6185200;23;20039;-87
2022/12/21 02:07:58;;;;;;;8.70;5.53;;;3.50;99.90;;;;;;6184959;23;20021;-89
2022/12/21 02:10:24;;;;;;;9.50;5.60;;;3.40;99.90;;;;;;6185757;23;20027;-86
2022/12/21 02:13:02;;;;;;;7.57;5.75;;;3.40;99.90;;;;;;6184976;23;20099;-86
2022/12/21 02:16:07;;;;;;;12.98;5.93;;;3.60;99.90;;;;;;6182958;23;20029;-87
2022/12/21 02:18:53;;;;;;;8.93;6.03;;;3.30;99.90;;;;;;6183683;23;20043;-86
2022/12/21 02:21:26;;;;;;;9.38;5.88;;;3.30;99.90;;;;;;6207296;23;20017;-87
2022/12/21 02:24:11;;;;;;;9.20;5.95;;;3.20;99.90;;;;;;6183247;23;20024;-87
2022/12/21 02:26:56;;;;;;;9.25;6.05;;;3.30;99.90;;;;;;6182259;23;20050;-86
2022/12/21 02:29:52;;;;;;;10.35;6.32;;;3.20;99.90;;;;;;6184901;23;20020;-86
2022/12/21 02:32:45;;;;;;;9.43;6.28;;;3.10;99.90;;;;;;6184687;23;20078;-85
2022/12/21 02:35:26;;;;;;;10.57;6.22;;;3.10;99.90;;;;;;6210168;23;20384;-86
2022/12/21 02:38:07;;;;;;;10.50;6.40;;;3.10;99.90;;;;;;6209826;23;20071;-86
2022/12/21 02:40:54;;;;;;;10.30;6.35;;;3.00;99.90;;;;;;6183248;23;20017;-86
2022/12/21 02:46:55;;;;;;;10.77;7.35;;;3.00;99.90;;;;;;6207518;23;20111;-86
2022/12/21 02:49:33;;;;;;;12.40;6.35;;;2.90;99.90;;;;;;6186220;23;20024;-87
2022/12/21 02:52:11;;;;;;;11.35;6.60;;;2.80;99.90;;;;;;6181889;23;20066;-87
2022/12/21 02:54:38;;;;;;;8.45;6.78;;;2.80;99.90;;;;;;6184688;23;20029;-85
2022/12/21 02:57:05;;;;;;;10.65;6.70;;;2.70;99.90;;;;;;6159326;23;20119;-86
2022/12/21 02:59:35;;;;;;;10.20;7.22;;;3.50;99.90;;;;;;6185877;23;20071;-87
2022/12/21 03:02:43;;;;;;;11.57;7.18;;;2.80;99.90;;;;;;6185157;23;20052;-87
2022/12/21 03:05:12;;;;;;;23.70;6.82;;;2.60;99.90;;;;;;6185509;23;20032;-86
2022/12/21 03:08:01;;;;;;;19.45;6.68;;;4.30;99.90;;;;;;6211067;23;20329;-86
2022/12/21 03:10:57;;;;;;;21.00;7.10;;;2.60;99.90;;;;;;6185939;23;20090;-86
2022/12/21 03:13:33;;;;;;;10.90;6.95;;;2.60;99.90;;;;;;6185136;23;20020;-86
2022/12/21 03:16:15;;;;;;;15.65;7.10;;;2.50;99.90;;;;;;6185688;23;20042;-88
2022/12/21 03:19:05;;;;;;;12.85;7.13;;;2.60;99.90;;;;;;6185259;23;20456;-87
2022/12/21 03:21:36;;;;;;;9.88;6.90;;;2.60;99.90;;;;;;6209739;23;20095;-86
2022/12/21 03:24:34;;;;;;;12.18;6.72;;;2.60;99.90;;;;;;6184296;23;20044;-87
2022/12/21 03:27:10;;;;;;;12.38;7.90;;;3.20;99.90;;;;;;6208516;23;20456;-87
2022/12/21 03:29:39;;;;;;;;;;;2.70;99.90;;;;;;6184725;23;20104;-86
2022/12/21 03:32:18;;;;;;;13.60;7.25;;;4.10;99.90;;;;;;6209446;23;19920;-88
2022/12/21 03:34:50;;;;;;;15.10;7.43;;;2.80;99.90;;;;;;6210115;23;20027;-87
2022/12/21 03:37:27;;;;;;;15.70;8.00;;;2.90;99.90;;;;;;6186181;23;20104;-86
2022/12/21 03:40:36;;;;;;;13.52;7.97;;;2.80;99.90;;;;;;6187223;23;20017;-87
2022/12/21 03:43:39;;;;;;;12.73;7.90;;;2.80;99.90;;;;;;6204900;23;20047;-86
2022/12/21 03:46:13;;;;;;;14.48;8.35;;;2.90;99.90;;;;;;6207241;23;20344;-86
2022/12/21 03:49:09;;;;;;;14.63;8.02;;;2.90;99.90;;;;;;6187023;23;20348;-87
2022/12/21 03:51:57;;;;;;;15.07;7.93;;;2.80;99.90;;;;;;6185383;23;20031;-86
2022/12/21 03:54:41;;;;;;;14.77;7.18;;;2.80;99.90;;;;;;6209835;23;20262;-85
2022/12/21 03:57:09;;;;;;;14.50;7.80;;;3.00;99.90;;;;;;6186908;23;20351;-86
2022/12/21 03:59:41;;;;;;;11.25;7.70;;;2.80;99.90;;;;;;6186318;23;20021;-88
2022/12/21 04:02:19;;;;;;;14.52;8.30;;;2.80;99.90;;;;;;6186211;23;20021;-86
2022/12/21 04:04:54;;;;;;;15.52;7.95;;;2.70;99.90;;;;;;6185863;23;20514;-86
2022/12/21 04:07:25;;;;;;;16.88;8.35;;;2.70;99.90;;;;;;6210836;23;20021;-86
2022/12/21 04:10:16;;;;;;;13.38;7.97;;;3.80;99.90;;;;;;6186867;23;20059;-85
2022/12/21 04:12:43;;;;;;;16.88;8.07;;;2.70;99.90;;;;;;6196824;23;20091;-86
2022/12/21 04:15:10;;;;;;;15.88;8.25;;;3.00;99.90;;;;;;6186366;23;20428;-88
2022/12/21 04:17:37;;;;;;;18.48;8.25;;;2.70;99.90;;;;;;6211018;23;20017;-86
2022/12/21 04:20:08;;;;;;;36.28;9.48;;;2.70;99.90;;;;;;6211096;23;20016;-88
2022/12/21 04:28:33;;;;;;;17.90;8.13;;;3.90;99.90;;;;;;6211202;23;20025;-86
2022/12/21 04:31:01;;;;;;;22.90;9.50;;;2.70;99.90;;;;;;6211373;23;20028;-86
2022/12/21 04:33:29;;;;;;;13.80;8.07;;;4.20;99.90;;;;;;6185777;23;20758;-85
2022/12/21 04:38:42;;;;;;;17.55;9.63;;;2.70;99.90;;;;;;6210862;23;20021;-85
2022/12/21 04:41:09;;;;;;;15.57;8.75;;;2.50;99.90;;;;;;6185987;23;20416;-85
2022/12/21 04:43:36;;;;;;;14.02;9.05;;;2.70;99.90;;;;;;6185113;23;20254;-86
2022/12/21 04:46:08;;;;;;;16.02;9.30;;;3.00;99.90;;;;;;6186680;23;20016;-85
2022/12/21 04:48:34;;;;;;;17.48;9.63;;;4.00;99.90;;;;;;6184730;23;20078;-85
2022/12/21 04:51:20;;;;;;;17.25;10.05;;;3.60;99.90;;;;;;6210548;23;20104;-84
2022/12/21 04:53:50;;;;;;;15.32;9.20;;;3.10;99.90;;;;;;6185704;23;20107;-84
2022/12/21 04:56:17;;;;;;;14.98;8.80;;;2.90;99.90;;;;;;6186966;23;20020;-88
2022/12/21 04:58:44;;;;;;;19.40;9.23;;;2.90;99.90;;;;;;6161671;23;20017;-85
2022/12/21 05:01:18;;;;;;;18.58;9.25;;;1.30;99.90;;;;;;6186158;23;20017;-86
2022/12/21 05:03:51;;;;;;;16.20;9.73;;;2.90;99.90;;;;;;6187057;23;20448;-85
2022/12/21 05:06:21;;;;;;;17.23;9.68;;;2.90;99.90;;;;;;6186786;23;20020;-87
2022/12/21 05:08:47;;;;;;;15.50;9.15;;;3.10;99.90;;;;;;6186059;23;20482;-84
2022/12/21 05:11:22;;;;;;;21.52;10.57;;;4.50;99.90;;;;;;6161362;23;20021;-86
2022/12/21 05:13:50;;;;;;;26.58;10.80;;;2.80;99.90;;;;;;6185936;23;20059;-87
2022/12/21 05:16:19;;;;;;;43.33;11.80;;;4.10;99.90;;;;;;6186574;23;20020;-86
2022/12/21 05:18:46;;;;;;;40.78;11.15;;;3.00;99.90;;;;;;6185468;23;20027;-85
2022/12/21 05:21:12;;;;;;;57.83;11.80;;;3.10;99.90;;;;;;6186010;23;20017;-86
2022/12/21 05:23:38;;;;;;;18.08;9.57;;;2.80;99.90;;;;;;6185676;23;20470;-85
2022/12/21 05:26:05;;;;;;;34.20;10.48;;;3.60;99.90;;;;;;6184778;23;20017;-85
2022/12/21 05:28:31;;;;;;;46.90;11.10;;;3.00;99.90;;;;;;6183480;23;20252;-87
2022/12/21 05:30:59;;;;;;;21.58;9.40;;;2.80;99.90;;;;;;6184190;23;20116;-88
2022/12/21 05:33:26;;;;;;;38.72;9.43;;;1.30;99.90;;;;;;6183137;23;20356;-87
2022/12/21 05:35:54;;;;;;;95.50;12.45;;;2.90;99.90;;;;;;6183426;23;20032;-86
2022/12/21 05:38:20;;;;;;;56.97;10.70;;;4.00;99.90;;;;;;6159958;23;20025;-85
2022/12/21 05:40:49;;;;;;;49.58;10.52;;;4.20;99.90;;;;;;6184623;23;20068;-86
2022/12/21 05:43:18;;;;;;;27.15;9.02;;;2.40;99.90;;;;;;6185826;23;20028;-86
2022/12/21 05:45:44;;;;;;;45.92;9.75;;;3.10;99.90;;;;;;6209871;23;20017;-86
2022/12/21 05:48:11;;;;;;;42.35;10.15;;;2.90;99.90;;;;;;6186272;23;20027;-86
2022/12/21 05:50:41;;;;;;;26.13;8.57;;;2.80;99.90;;;;;;6185734;23;20074;-86
2022/12/21 05:53:08;;;;;;;22.52;8.40;;;2.80;99.90;;;;;;6165124;23;20143;-85
2022/12/21 05:55:34;;;;;;;12.80;7.93;;;3.10;99.90;;;;;;6188875;23;20140;-85
2022/12/21 05:58:03;;;;;;;15.00;8.82;;;2.80;99.90;;;;;;6213355;23;20024;-84
2022/12/21 06:00:29;;;;;;;16.13;8.10;;;3.30;99.90;;;;;;6213331;23;20027;-85
2022/12/21 06:02:55;;;;;;;17.55;8.32;;;2.90;99.90;;;;;;6214455;23;20024;-84
2022/12/21 06:05:20;;;;;;;14.40;7.93;;;4.20;99.90;;;;;;6164482;23;20396;-86
2022/12/21 06:07:49;;;;;;;18.42;10.02;;;3.70;99.90;;;;;;6189196;23;20052;-85
2022/12/21 06:10:15;;;;;;;14.95;8.38;;;2.80;99.90;;;;;;6165534;23;20020;-86
2022/12/21 06:12:41;;;;;;;18.40;8.75;;;2.80;99.90;;;;;;6213552;23;20016;-85
2022/12/21 06:15:07;;;;;;;17.90;8.25;;;2.80;99.90;;;;;;6214591;23;20052;-84
2022/12/21 06:17:33;;;;;;;17.40;8.18;;;2.90;99.90;;;;;;6213944;23;20162;-86
2022/12/21 06:20:01;;;;;;;20.02;8.68;;;;;;;;;;6214275;23;20027;-85
2022/12/21 06:22:27;;;;;;;17.38;7.90;;;2.80;99.90;;;;;;6189554;23;20103;-85
2022/12/21 06:24:53;;;;;;;16.08;8.63;;;4.40;99.90;;;;;;6214582;23;20067;-85
2022/12/21 06:27:18;;;;;;;15.75;7.60;;;3.10;99.90;;;;;;6164968;23;20019;-86
2022/12/21 06:29:44;;;;;;;17.45;7.97;;;3.00;99.90;;;;;;6212941;23;20024;-85
2022/12/21 06:32:11;;;;;;;12.82;7.80;;;3.80;99.90;;;;;;6214253;23;20027;-85
2022/12/21 06:34:37;;;;;;;12.75;6.90;;;3.00;99.90;;;;;;6213006;23;20031;-84
2022/12/21 06:37:03;;;;;;;13.13;7.88;;;2.90;99.90;;;;;;6213706;23;20019;-86
2022/12/21 06:39:29;;;;;;;13.50;7.18;;;4.40;99.90;;;;;;6213571;23;20024;-85
2022/12/21 06:41:55;;;;;;;15.48;7.53;;;2.80;99.90;;;;;;6187730;23;20351;-84
2022/12/21 06:44:21;;;;;;;11.40;6.88;;;4.40;99.90;;;;;;6213191;23;20026;-84
2022/12/21 06:46:47;;;;;;;11.73;6.95;;;3.00;99.90;;;;;;6162991;23;20055;-85
2022/12/21 06:49:13;;;;;;;14.27;5.93;;;3.60;99.90;;;;;;6212538;23;20020;-85
2022/12/21 06:51:38;;;;;;;10.65;6.28;;;2.90;99.90;;;;;;6186725;23;20024;-85
2022/12/21 06:54:04;;;;;;;16.23;6.95;;;2.90;99.90;;;;;;6212954;23;20051;-84
2022/12/21 06:56:31;;;;;;;12.63;6.72;;;2.90;99.90;;;;;;6186308;23;20012;-83
2022/12/21 06:58:57;;;;;;;13.05;6.47;;;3.00;99.90;;;;;;6184526;23;20020;-84
2022/12/21 07:01:26;;;;;;;14.75;7.07;;;3.20;99.90;;;;;;6160264;23;20045;-85
2022/12/21 07:03:52;;;;;;;14.38;6.75;;;4.10;99.90;;;;;;6211434;23;20017;-85
2022/12/21 07:06:20;;;;;;;12.80;6.38;;;3.10;99.90;;;;;;6211277;23;20067;-84
2022/12/21 07:08:47;;;;;;;12.93;5.93;;;3.10;99.90;;;;;;6210528;23;20016;-85
2022/12/21 07:11:15;;;;;;;12.75;6.30;;;3.30;99.90;;;;;;6214400;23;20054;-85
2022/12/21 07:13:43;;;;;;;13.48;6.70;;;3.10;99.90;;;;;;6213227;23;20200;-85
2022/12/21 07:16:10;;;;;;;16.33;7.05;;;3.10;99.90;;;;;;6212044;23;20012;-84
2022/12/21 07:18:36;;;;;;;15.98;6.18;;;3.10;99.90;;;;;;6212549;23;20024;-85
2022/12/21 07:21:08;;;;;;;17.13;7.45;;;3.20;99.90;;;;;;6211245;23;20058;-85
2022/12/21 07:23:36;;;;;;;20.33;7.20;;;3.10;99.90;;;;;;6213043;23;20020;-90
2022/12/21 07:26:06;;;;;;;14.00;6.18;;;3.80;99.90;;;;;;6162230;23;20027;-86
2022/12/21 07:28:32;;;;;;;14.23;7.03;;;3.30;99.90;;;;;;6211654;23;20317;-85
2022/12/21 07:31:12;;;;;;;15.85;7.10;;;4.70;99.90;;;;;;6187849;23;20078;-86
2022/12/21 07:33:40;;;;;;;16.90;6.97;;;3.30;99.90;;;;;;6189038;23;20024;-85
2022/12/21 07:36:07;;;;;;;16.58;7.43;;;3.40;99.90;;;;;;6213592;23;20094;-85
2022/12/21 07:38:35;;;;;;;20.67;6.78;;;3.40;99.90;;;;;;6214399;23;20023;-86
2022/12/21 07:41:03;;;;;;;15.85;7.20;;;3.60;99.90;;;;;;6165097;23;20027;-85
2022/12/21 07:43:30;;;;;;;18.05;6.97;;;3.40;99.90;;;;;;6214670;23;20023;-86
2022/12/21 07:45:56;;;;;;;13.02;6.47;;;3.50;99.90;;;;;;6215305;23;20428;-85
2022/12/21 07:48:22;;;;;;;15.25;6.80;;;;;;;;;;6215463;23;20030;-85
2022/12/21 07:50:49;;;;;;;15.75;6.80;;;3.40;99.90;;;;;;6214889;23;20147;-85
2022/12/21 07:53:16;;;;;;;22.45;6.90;;;3.40;99.90;;;;;;6215819;23;20073;-85
2022/12/21 07:55:43;;;;;;;18.80;6.90;;;3.50;99.90;;;;;;6191022;23;20016;-86
2022/12/21 07:58:09;;;;;;;16.92;6.07;;;3.30;99.90;;;;;;6215390;23;20451;-85
2022/12/21 08:00:37;;;;;;;19.13;6.70;;;3.10;99.90;;;;;;6214929;23;20020;-85
2022/12/21 08:03:04;;;;;;;14.85;5.80;;;2.40;99.90;;;;;;6189778;23;20024;-84
2022/12/21 08:05:30;;;;;;;18.55;6.43;;;3.60;99.90;;;;;;6239133;23;20023;-85
2022/12/21 08:07:57;;;;;;;19.42;5.65;;;3.80;99.90;;;;;;6215005;23;20062;-85
2022/12/21 08:10:23;;;;;;;15.93;6.03;;;3.60;99.90;;;;;;6214282;23;20027;-85
2022/12/21 08:12:49;;;;;;;15.20;6.03;;;3.70;99.90;;;;;;6214051;23;20443;-86
2022/12/21 08:15:15;;;;;;;16.23;6.60;;;3.70;99.90;;;;;;6188801;23;20151;-85
2022/12/21 08:17:41;;;;;;;14.88;5.90;;;3.70;99.90;;;;;;6214466;23;20445;-85
2022/12/21 08:20:07;;;;;;;18.17;6.68;;;3.80;99.90;;;;;;6213074;23;20035;-85
2022/12/21 08:22:33;;;;;;;23.25;6.65;;;3.80;99.90;;;;;;6214004;23;20047;-84
2022/12/21 08:24:59;;;;;;;21.40;7.03;;;3.80;99.90;;;;;;6189752;23;20400;-84
2022/12/21 08:27:24;;;;;;;20.23;6.20;;;3.80;99.90;;;;;;6189991;23;20435;-85
2022/12/21 08:29:50;;;;;;;19.05;6.43;;;3.80;99.90;;;;;;6140471;23;20112;-85
2022/12/21 08:32:16;;;;;;;20.30;5.95;;;4.80;99.90;;;;;;6165138;23;20392;-85
2022/12/21 08:34:42;;;;;;;25.20;7.78;;;4.20;99.90;;;;;;6215411;23;20070;-85
2022/12/21 08:37:08;;;;;;;24.77;8.15;;;4.00;99.90;;;;;;6215155;23;20016;-86
2022/12/21 08:39:34;;;;;;;21.77;8.57;;;5.20;99.90;;;;;;6214840;23;20063;-84
2022/12/21 08:41:59;;;;;;;27.95;9.40;;;4.70;99.90;;;;;;6213632;23;20028;-84
2022/12/21 08:44:25;;;;;;;23.20;8.63;;;4.00;99.90;;;;;;6190198;23;20022;-84
2022/12/21 08:46:51;;;;;;;20.80;8.52;;;4.00;99.90;;;;;;6165928;23;20074;-86
2022/12/21 08:49:17;;;;;;;24.60;9.02;;;4.80;99.90;;;;;;6165367;23;20039;-85
2022/12/21 08:51:42;;;;;;;27.75;9.07;;;4.10;99.90;;;;;;6164870;23;20027;-85
2022/12/21 08:54:08;;;;;;;27.52;8.32;;;4.10;99.90;;;;;;6213966;23;20020;-83
2022/12/21 08:56:35;;;;;;;26.77;9.90;;;5.20;99.90;;;;;;6215383;23;20467;-85
2022/12/21 08:59:03;;;;;;;27.13;10.02;;;4.90;99.90;;;;;;6214552;23;20024;-84
2022/12/21 09:01:29;;;;;;;27.55;9.75;;;4.30;99.90;;;;;;6189990;23;20069;-85
2022/12/21 09:03:55;;;;;;;24.90;9.52;;;4.20;99.90;;;;;;6214197;23;20121;-85
2022/12/21 09:06:21;;;;;;;30.38;9.55;;;5.50;99.90;;;;;;6215069;23;20023;-85
2022/12/21 09:08:47;;;;;;;25.75;10.02;;;4.50;99.90;;;;;;6165704;23;20103;-84
2022/12/21 09:11:14;;;;;;;27.88;9.75;;;4.30;99.90;;;;;;6189515;23;20022;-85
2022/12/21 09:13:40;;;;;;;33.08;10.45;;;4.20;99.90;;;;;;6214942;23;20062;-84
2022/12/21 09:16:17;;;;;;;24.27;10.48;;;4.40;99.90;;;;;;6189309;23;20020;-84
2022/12/21 09:18:43;;;;;;;24.00;10.25;;;4.70;99.90;;;;;;6190041;23;20110;-84
2022/12/21 09:21:11;;;;;;;28.45;10.27;;;4.70;99.90;;;;;;6189282;23;20065;-84
2022/12/21 09:23:37;;;;;;;22.73;10.80;;;4.70;99.90;;;;;;6189496;23;20074;-84
2022/12/21 09:26:07;;;;;;;25.25;11.18;;;4.50;99.90;;;;;;6214462;23;20103;-84
2022/12/21 09:28:34;;;;;;;28.90;11.13;;;4.50;99.90;;;;;;6189885;23;20020;-84
2022/12/21 09:31:14;;;;;;;28.58;11.30;;;4.80;99.90;;;;;;6189236;23;20154;-86
2022/12/21 09:33:42;;;;;;;30.75;11.85;;;5.00;99.90;;;;;;6214011;23;20022;-85
2022/12/21 09:36:10;;;;;;;31.33;12.15;;;5.30;99.90;;;;;;6188618;23;20016;-85
2022/12/21 09:38:36;;;;;;;28.25;11.68;;;5.40;99.90;;;;;;6215103;23;20016;-84
2022/12/21 09:41:05;;;;;;;22.98;11.07;;;4.50;99.90;;;;;;6214259;23;20016;-85
2022/12/21 09:43:50;;;;;;;21.88;10.98;;;5.60;99.90;;;;;;6189334;23;20020;-84
2022/12/21 09:46:17;;;;;;;28.33;11.70;;;5.90;99.90;;;;;;6187963;23;20100;-84
2022/12/21 09:49:00;;;;;;;26.45;10.73;;;5.70;99.90;;;;;;6189574;23;20019;-84
2022/12/21 09:51:29;;;;;;;23.30;10.95;;;5.70;99.90;;;;;;6188831;23;20474;-86
2022/12/21 09:54:11;;;;;;;20.95;9.60;;;5.60;99.90;;;;;;6188515;23;20123;-84
2022/12/21 09:56:40;;;;;;;23.27;10.10;;;5.70;99.90;;;;;;6188305;23;20114;-85
2022/12/21 09:59:13;;;;;;;21.02;10.20;;;5.80;99.90;;;;;;6212725;23;20020;-85
2022/12/21 10:01:47;;;;;;;25.10;10.70;;;5.90;99.90;;;;;;6188240;23;20016;-84
2022/12/21 10:04:22;;;;;;;23.30;10.98;;;6.40;99.90;;;;;;6188094;23;20091;-82
2022/12/21 10:07:02;;;;;;;27.73;13.40;;;6.80;99.90;;;;;;6211611;23;20042;-81
2022/12/21 10:09:40;;;;;;;26.38;12.02;;;7.70;99.90;;;;;;6212193;23;20020;-82
2022/12/21 10:12:06;;;;;;;24.80;11.95;;;8.30;99.90;;;;;;6188005;23;20016;-84
2022/12/21 10:15:08;;;;;;;28.58;11.57;;;8.40;99.90;;;;;;6187439;23;20439;-83
2022/12/21 10:18:17;;;;;;;21.98;10.52;;;8.40;99.90;;;;;;6187149;23;20020;-82
2022/12/21 10:20:56;;;;;;;24.08;11.55;;;8.00;99.90;;;;;;6121545;23;20021;-82
2022/12/21 10:23:32;;;;;;;24.80;11.80;;;7.90;99.90;;;;;;6206267;23;20024;-82
2022/12/21 10:26:02;;;;;;;24.38;12.30;;;8.40;99.90;;;;;;6187855;23;20505;-82
2022/12/21 10:28:49;;;;;;;21.30;11.52;;;9.00;99.90;;;;;;6186851;23;20129;-82
2022/12/21 10:31:18;;;;;;;;;;;9.50;99.90;;;;;;6186192;23;20028;-83
2022/12/21 10:33:49;;;;;;;24.73;10.90;;;10.00;99.90;;;;;;6186782;23;19919;-83
2022/12/21 10:36:18;;;;;;;21.33;10.70;;;10.40;99.90;;;;;;6212172;23;20382;-82
2022/12/21 10:38:44;;;;;;;22.00;10.45;;;10.30;99.90;;;;;;6188096;23;20058;-83
2022/12/21 10:41:18;;;;;;;19.73;10.05;;;10.50;99.90;;;;;;6212198;23;20059;-84
2022/12/21 10:43:48;;;;;;;18.02;10.00;;;10.70;99.90;;;;;;6188926;23;20020;-82
2022/12/21 10:46:19;;;;;;;25.35;10.32;;;10.90;99.90;;;;;;6189229;23;20093;-83
2022/12/21 10:48:47;;;;;;;20.60;10.55;;;10.80;99.90;;;;;;6187642;23;20115;-84
2022/12/21 10:51:26;;;;;;;16.38;10.93;;;10.90;99.90;;;;;;6185551;23;20024;-82
2022/12/21 10:53:58;;;;;;;17.80;9.27;;;10.80;99.90;;;;;;6212188;23;20344;-82
2022/12/21 10:56:25;;;;;;;15.70;9.25;;;10.30;99.90;;;;;;6211525;23;20352;-81
2022/12/21 10:58:53;;;;;;;17.17;9.52;;;9.90;99.90;;;;;;6186626;23;20016;-82
2022/12/21 11:01:27;;;;;;;16.38;10.00;;;9.50;99.90;;;;;;6187678;23;20407;-82
2022/12/21 11:04:06;;;;;;;16.08;9.55;;;9.20;99.90;;;;;;6161397;23;20024;-82
2022/12/21 11:06:32;;;;;;;17.15;10.02;;;9.00;99.90;;;;;;6211494;23;20020;-82
2022/12/21 11:08:58;;;;;;;19.58;9.98;;;8.80;99.90;;;;;;6187985;23;20020;-82
2022/12/21 11:11:31;;;;;;;18.33;9.77;;;8.60;99.90;;;;;;6161514;23;20618;-81
2022/12/21 11:14:01;;;;;;;17.85;11.20;;;8.40;99.90;;;;;;6212580;23;20024;-82
2022/12/21 11:16:30;;;;;;;20.33;11.30;;;8.20;99.90;;;;;;6185758;23;20455;-80
2022/12/21 11:19:01;;;;;;;18.27;10.38;;;8.00;99.90;;;;;;6211897;23;20016;-81
2022/12/21 11:21:45;;;;;;;19.08;11.20;;;7.80;99.90;;;;;;6185771;23;20060;-82
2022/12/21 11:24:17;;;;;;;20.42;10.93;;;7.70;99.90;;;;;;6211162;23;20407;-81
2022/12/21 11:26:50;;;;;;;26.70;12.13;;;7.50;99.90;;;;;;6211747;23;20441;-81
2022/12/21 11:29:27;;;;;;;21.73;11.30;;;7.40;99.90;;;;;;6210956;23;20090;-81
2022/12/21 11:31:55;;;;;;;23.77;12.00;;;7.30;99.90;;;;;;6187291;23;20382;-81
2022/12/21 11:34:26;;;;;;;23.00;12.15;;;7.20;99.90;;;;;;6210601;23;20047;-83
2022/12/21 11:36:59;;;;;;;22.70;11.95;;;7.10;99.90;;;;;;6187329;23;20044;-81
2022/12/21 11:39:25;;;;;;;29.45;12.32;;;7.00;99.90;;;;;;6211350;23;20095;-81
2022/12/21 11:41:53;;;;;;;23.95;12.35;;;7.00;99.90;;;;;;6186702;23;20047;-80
2022/12/21 11:44:31;;;;;;;22.95;10.77;;;6.90;99.90;;;;;;6210898;23;20016;-83
2022/12/21 11:47:15;;;;;;;21.65;11.18;;;6.90;99.90;;;;;;6163655;23;20467;-82
2022/12/21 11:50:05;;;;;;;25.23;11.32;;;6.90;99.90;;;;;;6187090;23;20020;-83
2022/12/21 11:52:34;;;;;;;23.42;11.77;;;6.90;99.90;;;;;;6212118;23;20440;-83
2022/12/21 11:55:24;;;;;;;26.55;12.65;;;6.80;99.90;;;;;;6185677;23;20020;-83
2022/12/21 11:58:06;;;;;;;24.10;13.15;;;6.80;99.90;;;;;;6187847;23;20082;-82
2022/12/21 12:00:50;;;;;;;25.50;12.75;;;6.70;99.90;;;;;;6213583;23;20016;-82
2022/12/21 12:03:24;;;;;;;24.77;12.68;;;6.70;99.90;;;;;;6214631;23;20052;-81
2022/12/21 12:06:08;;;;;;;24.88;13.43;;;6.70;99.90;;;;;;6188756;23;20435;-83
2022/12/21 12:08:45;;;;;;;25.58;13.13;;;6.60;99.90;;;;;;6188770;23;20063;-82
2022/12/21 12:11:44;;;;;;;25.52;12.90;;;6.60;99.90;;;;;;6189047;23;20012;-82
2022/12/21 12:14:33;;;;;;;27.48;13.88;;;6.70;99.90;;;;;;6189194;23;20020;-82
2022/12/21 12:17:10;;;;;;;33.78;14.27;;;6.70;99.90;;;;;;6211557;23;20103;-82
2022/12/21 12:20:07;;;;;;;31.00;14.18;;;6.80;99.90;;;;;;6189165;23;20385;-82
2022/12/21 12:22:42;;;;;;;30.05;15.20;;;6.90;99.90;;;;;;6189678;23;20016;-83
2022/12/21 12:25:23;;;;;;;30.75;14.73;;;7.00;99.90;;;;;;6189205;23;20051;-83
2022/12/21 12:28:17;;;;;;;31.83;14.20;;;7.00;99.90;;;;;;6190011;23;20020;-87
2022/12/21 12:31:01;;;;;;;31.73;15.70;;;7.10;99.90;;;;;;6214096;23;20554;-86
2022/12/21 12:33:38;;;;;;;27.50;14.98;;;7.10;99.90;;;;;;6189485;23;20046;-88
2022/12/21 12:36:17;;;;;;;30.98;16.52;;;7.20;99.90;;;;;;6189709;23;20462;-85
2022/12/21 12:39:09;;;;;;;35.08;16.35;;;6.10;99.90;;;;;;6188654;23;20020;-85
2022/12/21 12:42:16;;;;;;;36.17;17.20;;;6.00;99.90;;;;;;6189491;23;20098;-85
2022/12/21 12:44:57;;;;;;;25.45;15.52;;;7.20;99.90;;;;;;6138218;23;20016;-86
2022/12/21 12:48:00;;;;;;;32.25;15.25;;;7.30;99.90;;;;;;6191124;23;20031;-85
2022/12/21 12:50:51;;;;;;;30.00;16.42;;;7.20;99.90;;;;;;6190193;23;20024;-85
2022/12/21 12:53:19;;;;;;;34.50;15.85;;;7.20;99.90;;;;;;6190658;23;20517;-85
2022/12/21 12:55:48;;;;;;;29.65;15.35;;;7.20;99.90;;;;;;6190154;23;20020;-84
2022/12/21 12:58:38;;;;;;;34.28;16.52;;;7.00;99.90;;;;;;6190898;23;20016;-85
2022/12/21 13:01:43;;;;;;;28.83;14.73;;;7.20;99.90;;;;;;6190168;23;20012;-86
2022/12/21 13:04:23;;;;;;;33.03;15.10;;;7.20;99.90;;;;;;6191344;23;20106;-86
2022/12/21 13:07:18;;;;;;;30.30;14.82;;;7.20;99.90;;;;;;6189781;23;20086;-86
2022/12/21 13:10:01;;;;;;;24.20;14.55;;;7.20;99.90;;;;;;6214107;23;20027;-89
2022/12/21 13:12:27;;;;;;;32.72;14.02;;;7.20;99.90;;;;;;6191225;23;20022;-85
2022/12/21 13:15:08;;;;;;;27.73;13.75;;;7.10;99.90;;;;;;6188803;23;20012;-84
2022/12/21 13:17:43;;;;;;;26.77;12.60;;;7.10;99.90;;;;;;6188731;23;20016;-85
2022/12/21 13:20:17;;;;;;;25.42;12.07;;;7.30;99.90;;;;;;6215343;23;20070;-86
2022/12/21 13:22:49;;;;;;;22.00;12.50;;;7.20;99.90;;;;;;6187246;23;20399;-85
2022/12/21 13:25:21;;;;;;;26.23;13.10;;;7.20;99.90;;;;;;6189513;23;20412;-85
2022/12/21 13:27:52;;;;;;;27.30;12.77;;;7.20;99.90;;;;;;6214620;23;20017;-84